Time;durP1;ratioP1;P1;durP2;ratioP2;P2;SDS_P1;SDS_P2;PMS_P1;PMS_P2;Temp;Humidity;BMP_temperature;BMP_pressure;BME280_temperature;BME280_humidity;BME280_pressure;Samples;Min_cycle;Max_cycle;Signal;HPM_P1;HPM_P2
2022/03/30 00:01:07;;;;;;;4.75;2.22;;;;;;;;;;5039732;28;20433;-51
2022/03/30 00:03:33;;;;;;;3.92;2.03;;;;;;;;;;5040940;28;20362;-52
2022/03/30 00:05:59;;;;;;;6.70;2.08;;;;;;;;;;5047857;28;20108;-50
2022/03/30 00:08:25;;;;;;;6.25;1.80;;;;;;;;;;5040645;28;20033;-49
2022/03/30 00:10:52;;;;;;;4.75;2.00;;;;;;;;;;5042378;28;20098;-49
2022/03/30 00:13:18;;;;;;;6.50;1.92;;;;;;;;;;5035889;28;20018;-48
2022/03/30 00:15:44;;;;;;;4.40;1.95;;;;;;;;;;5045786;28;20044;-48
2022/03/30 00:18:10;;;;;;;7.50;1.70;;;;;;;;;;5046799;28;20682;-49
2022/03/30 00:20:36;;;;;;;6.65;2.60;;;;;;;;;;5039009;28;20025;-48
2022/03/30 00:23:02;;;;;;;10.10;2.88;;;;;;;;;;5031728;28;20033;-48
2022/03/30 00:25:28;;;;;;;6.35;2.15;;;;;;;;;;5044249;28;20052;-51
2022/03/30 00:27:54;;;;;;;8.18;2.47;;;;;;;;;;5039143;28;20530;-53
2022/03/30 00:30:21;;;;;;;9.00;2.28;;;;;;;;;;5037351;28;20033;-49
2022/03/30 00:32:47;;;;;;;8.07;2.42;;;;;;;;;;5048016;28;20047;-50
2022/03/30 00:35:13;;;;;;;6.63;2.08;;;;;;;;;;5037372;28;20025;-49
2022/03/30 00:37:40;;;;;;;8.93;2.15;;;;;;;;;;5036396;28;20033;-48
2022/03/30 00:40:07;;;;;;;4.82;1.80;;;;;;;;;;5035309;28;20160;-48
2022/03/30 00:42:33;;;;;;;9.07;2.40;;;;;;;;;;5046806;28;20493;-48
2022/03/30 00:44:59;;;;;;;10.68;2.80;;;;;;;;;;5037556;28;20033;-48
2022/03/30 00:47:26;;;;;;;5.68;1.85;;;;;;;;;;5038130;28;20354;-48
2022/03/30 00:49:52;;;;;;;10.30;3.30;;;;;;;;;;5036168;28;20087;-48
2022/03/30 00:52:20;;;;;;;4.50;2.30;;;;;;;;;;5038211;28;20032;-49
2022/03/30 00:54:47;;;;;;;6.47;2.28;;;;;;;;;;5045314;28;20732;-48
2022/03/30 00:57:14;;;;;;;11.73;2.45;;;;;;;;;;5040137;28;20071;-48
2022/03/30 00:59:41;;;;;;;8.82;2.90;;;;;;;;;;5041764;28;20567;-48
2022/03/30 01:02:07;;;;;;;5.78;2.25;;;;;;;;;;5044040;28;20025;-51
2022/03/30 01:04:33;;;;;;;8.25;2.20;;;;;;;;;;5048310;28;20032;-48
2022/03/30 01:07:00;;;;;;;9.77;2.67;;;;;;;;;;5049121;28;20533;-50
2022/03/30 01:09:26;;;;;;;9.05;2.20;;;;;;;;;;5032072;28;20052;-52
2022/03/30 01:11:53;;;;;;;4.57;2.15;;;;;;;;;;5033746;28;20464;-48
2022/03/30 01:14:19;;;;;;;11.40;2.63;;;;;;;;;;5042348;28;20029;-49
2022/03/30 01:16:46;;;;;;;7.97;3.08;;;;;;;;;;5043705;28;20115;-50
2022/03/30 01:19:12;;;;;;;9.65;2.58;;;;;;;;;;5033461;28;20104;-50
2022/03/30 01:21:41;;;;;;;7.50;2.20;;;;;;;;;;5039782;28;20454;-51
2022/03/30 01:24:12;;;;;;;6.00;2.58;;;;;;;;;;5032075;28;20132;-48
2022/03/30 01:26:38;;;;;;;8.25;2.80;;;;;;;;;;5043563;28;20445;-48
2022/03/30 01:34:36;;;;;;;9.88;3.00;;;;;;;;;;5036733;28;20028;-50
2022/03/30 01:37:05;;;;;;;8.93;2.72;;;;;;;;;;5036607;28;20025;-48
2022/03/30 01:39:31;;;;;;;6.80;2.88;;;;;;;;;;5039205;28;20025;-48
2022/03/30 01:41:57;;;;;;;5.75;2.40;;;;;;;;;;5047230;28;20025;-49
2022/03/30 01:44:24;;;;;;;6.13;2.60;;;;;;;;;;5044958;28;20085;-49
2022/03/30 01:46:50;;;;;;;8.93;2.58;;;;;;;;;;5048860;28;20040;-49
2022/03/30 01:49:21;;;;;;;5.90;2.42;;;;;;;;;;5046860;28;20492;-51
2022/03/30 01:51:47;;;;;;;7.07;2.45;;;;;;;;;;5044613;28;20021;-50
2022/03/30 01:54:13;;;;;;;8.75;2.75;;;;;;;;;;5042017;28;20386;-51
2022/03/30 01:56:39;;;;;;;7.30;2.58;;;;;;;;;;5036030;28;20037;-51
2022/03/30 01:59:04;;;;;;;13.05;2.83;;;;;;;;;;5042620;28;20029;-51
2022/03/30 02:01:30;;;;;;;6.30;3.10;;;;;;;;;;5037451;28;20038;-49
2022/03/30 02:03:57;;;;;;;6.40;3.13;;;;;;;;;;5048412;28;20026;-48
2022/03/30 02:06:24;;;;;;;6.15;2.42;;;;;;;;;;5041638;28;20444;-48
2022/03/30 02:08:50;;;;;;;10.20;3.42;;;;;;;;;;5048452;28;20816;-48
2022/03/30 02:11:16;;;;;;;6.30;2.67;;;;;;;;;;5045897;28;20025;-48
2022/03/30 02:13:42;;;;;;;9.43;2.72;;;;;;;;;;5052719;28;20021;-49
2022/03/30 02:16:08;;;;;;;8.15;2.63;;;;;;;;;;5049361;28;20440;-48
2022/03/30 02:18:35;;;;;;;4.20;2.42;;;;;;;;;;5048106;28;20021;-48
2022/03/30 02:21:01;;;;;;;4.88;2.33;;;;;;;;;;5037980;28;21004;-48
2022/03/30 02:23:27;;;;;;;13.40;3.33;;;;;;;;;;5046229;28;20033;-51
2022/03/30 02:25:53;;;;;;;5.45;2.63;;;;;;;;;;5038379;28;20033;-50
2022/03/30 02:28:19;;;;;;;7.25;2.92;;;;;;;;;;5051602;28;20468;-49
2022/03/30 02:30:45;;;;;;;6.57;2.67;;;;;;;;;;5047603;28;20033;-49
2022/03/30 02:33:11;;;;;;;5.15;2.67;;;;;;;;;;5042384;28;20555;-52
2022/03/30 02:35:37;;;;;;;7.75;2.60;;;;;;;;;;5039851;28;20066;-49
2022/03/30 02:38:03;;;;;;;8.27;3.13;;;;;;;;;;5042222;28;20373;-48
2022/03/30 02:40:29;;;;;;;5.03;2.38;;;;;;;;;;5038619;28;20037;-50
2022/03/30 02:42:55;;;;;;;7.50;3.13;;;;;;;;;;5046969;28;20417;-48
2022/03/30 02:45:21;;;;;;;6.82;2.40;;;;;;;;;;5043099;28;20075;-53
2022/03/30 02:50:32;;;;;;;13.48;2.65;;;;;;;;;;5043473;28;20115;-49
2022/03/30 02:52:58;;;;;;;7.90;3.30;;;;;;;;;;5040649;28;20022;-48
2022/03/30 02:55:24;;;;;;;13.45;2.83;;;;;;;;;;5048643;28;20049;-49
2022/03/30 02:57:50;;;;;;;5.85;2.92;;;;;;;;;;5032926;28;20128;-50
2022/03/30 03:00:16;;;;;;;6.88;2.63;;;;;;;;;;5042442;28;20105;-48
2022/03/30 03:02:42;;;;;;;10.73;3.08;;;;;;;;;;5042001;28;20119;-52
2022/03/30 03:05:08;;;;;;;7.57;2.30;;;;;;;;;;5044829;28;20036;-50
2022/03/30 03:07:34;;;;;;;7.60;2.80;;;;;;;;;;5046746;28;20057;-51
2022/03/30 03:10:01;;;;;;;5.57;3.00;;;;;;;;;;5046956;28;20028;-48
2022/03/30 03:12:27;;;;;;;9.85;3.35;;;;;;;;;;5040727;28;20051;-53
2022/03/30 03:14:53;;;;;;;11.48;3.08;;;;;;;;;;5042932;28;20026;-52
2022/03/30 03:17:20;;;;;;;6.85;3.03;;;;;;;;;;5037452;28;20087;-48
2022/03/30 03:19:46;;;;;;;5.45;2.58;;;;;;;;;;5043615;28;20087;-53
2022/03/30 03:22:12;;;;;;;7.72;3.00;;;;;;;;;;5039124;28;20038;-50
2022/03/30 03:24:38;;;;;;;4.97;2.47;;;;;;;;;;5037270;28;20033;-49
2022/03/30 03:27:04;;;;;;;10.38;3.40;;;;;;;;;;5039420;28;20143;-49
2022/03/30 03:29:30;;;;;;;5.60;2.90;;;;;;;;;;5048550;28;20086;-48
2022/03/30 03:31:56;;;;;;;3.47;2.42;;;;;;;;;;5039905;28;20028;-48
2022/03/30 03:34:22;;;;;;;6.45;3.10;;;;;;;;;;5043051;28;20037;-49
2022/03/30 03:36:48;;;;;;;11.38;3.17;;;;;;;;;;5039015;28;20404;-52
2022/03/30 03:39:14;;;;;;;7.20;3.33;;;;;;;;;;5048038;28;20044;-52
2022/03/30 03:41:40;;;;;;;11.68;3.10;;;;;;;;;;5035193;28;20049;-49
2022/03/30 03:44:06;;;;;;;9.80;2.78;;;;;;;;;;5042267;28;20044;-48
2022/03/30 03:46:32;;;;;;;7.60;3.28;;;;;;;;;;5044004;28;20090;-49
2022/03/30 03:48:58;;;;;;;9.07;2.88;;;;;;;;;;5042378;28;20033;-49
2022/03/30 03:51:24;;;;;;;14.23;2.95;;;;;;;;;;5045480;28;20017;-48
2022/03/30 03:53:50;;;;;;;6.68;2.75;;;;;;;;;;5041031;28;20021;-49
2022/03/30 03:56:16;;;;;;;5.05;2.92;;;;;;;;;;5041699;28;20020;-48
2022/03/30 03:58:42;;;;;;;4.72;2.88;;;;;;;;;;5049196;28;20025;-48
2022/03/30 04:01:08;;;;;;;6.65;2.60;;;;;;;;;;5034906;28;20056;-52
2022/03/30 04:03:34;;;;;;;12.82;3.63;;;;;;;;;;5037048;28;20040;-48
2022/03/30 04:06:00;;;;;;;11.30;3.25;;;;;;;;;;5040376;28;20090;-49
2022/03/30 04:08:26;;;;;;;4.65;2.92;;;;;;;;;;5036128;28;20029;-48
2022/03/30 04:10:51;;;;;;;9.57;3.15;;;;;;;;;;5041757;28;20041;-48
2022/03/30 04:13:17;;;;;;;10.10;3.05;;;;;;;;;;5048701;28;20096;-51
2022/03/30 04:15:43;;;;;;;5.68;2.75;;;;;;;;;;5047019;28;20033;-52
2022/03/30 04:18:09;;;;;;;10.30;2.70;;;;;;;;;;5042595;28;20032;-50
2022/03/30 04:20:36;;;;;;;14.55;3.08;;;;;;;;;;5043178;28;20017;-50
2022/03/30 04:23:02;;;;;;;7.15;2.83;;;;;;;;;;5044834;28;20029;-50
2022/03/30 04:25:28;;;;;;;12.00;2.97;;;;;;;;;;5040514;28;20036;-50
2022/03/30 04:27:54;;;;;;;7.00;2.90;;;;;;;;;;5035634;28;20045;-48
2022/03/30 04:30:21;;;;;;;4.07;2.60;;;;;;;;;;5032185;28;20040;-49
2022/03/30 04:32:47;;;;;;;12.68;2.85;;;;;;;;;;5033472;28;20025;-50
2022/03/30 04:35:17;;;;;;;8.25;3.20;;;;;;;;;;5032649;28;20064;-48
2022/03/30 04:37:43;;;;;;;8.23;3.00;;;;;;;;;;5037021;28;20644;-48
2022/03/30 04:40:09;;;;;;;9.18;3.22;;;;;;;;;;5039856;28;20033;-50
2022/03/30 04:42:35;;;;;;;7.65;3.05;;;;;;;;;;5034368;28;20047;-49
2022/03/30 04:45:01;;;;;;;7.88;3.53;;;;;;;;;;5037241;28;20034;-52
2022/03/30 04:47:27;;;;;;;6.70;3.00;;;;;;;;;;5042853;28;20086;-49
2022/03/30 04:49:53;;;;;;;6.75;2.92;;;;;;;;;;5035886;28;20043;-52
2022/03/30 04:52:19;;;;;;;7.30;3.30;;;;;;;;;;5045670;28;20036;-52
2022/03/30 04:54:45;;;;;;;8.93;3.15;;;;;;;;;;5038659;28;20053;-51
2022/03/30 04:57:11;;;;;;;8.85;3.30;;;;;;;;;;5049840;28;20068;-48
2022/03/30 04:59:37;;;;;;;9.10;2.85;;;;;;;;;;5039613;28;20080;-48
2022/03/30 05:02:03;;;;;;;8.45;2.78;;;;;;;;;;5038089;28;20021;-49
2022/03/30 05:04:32;;;;;;;4.63;2.50;;;;;;;;;;5029416;28;20108;-48
2022/03/30 05:06:58;;;;;;;8.45;3.35;;;;;;;;;;5035390;28;20040;-48
2022/03/30 05:09:24;;;;;;;9.07;2.90;;;;;;;;;;5033157;28;20029;-49
2022/03/30 05:11:51;;;;;;;7.13;3.22;;;;;;;;;;5045257;28;20045;-50
2022/03/30 05:14:17;;;;;;;7.55;3.28;;;;;;;;;;5037267;28;20390;-49
2022/03/30 05:16:43;;;;;;;9.07;3.00;;;;;;;;;;5040792;28;20040;-48
2022/03/30 05:19:10;;;;;;;6.15;2.78;;;;;;;;;;5042710;28;20083;-51
2022/03/30 05:21:36;;;;;;;7.57;3.03;;;;;;;;;;5042512;28;20029;-51
2022/03/30 05:24:02;;;;;;;9.27;2.92;;;;;;;;;;5041670;28;20543;-50
2022/03/30 05:26:28;;;;;;;6.72;2.65;;;;;;;;;;5039861;28;20127;-48
2022/03/30 05:28:54;;;;;;;10.60;3.45;;;;;;;;;;5039699;28;20483;-48
2022/03/30 05:31:20;;;;;;;4.97;2.75;;;;;;;;;;5051898;28;20024;-49
2022/03/30 05:33:46;;;;;;;5.60;2.63;;;;;;;;;;5039974;28;20152;-48
2022/03/30 05:36:12;;;;;;;6.00;2.42;;;;;;;;;;5041857;28;20111;-53
2022/03/30 05:38:38;;;;;;;9.32;2.50;;;;;;;;;;5052452;28;20031;-51
2022/03/30 05:41:04;;;;;;;9.63;3.70;;;;;;;;;;5040197;28;20060;-49
2022/03/30 05:43:30;;;;;;;5.47;2.85;;;;;;;;;;5045589;28;20060;-48
2022/03/30 05:45:56;;;;;;;7.43;3.45;;;;;;;;;;5041964;28;20037;-49
2022/03/30 05:48:22;;;;;;;8.18;3.08;;;;;;;;;;5048725;28;20039;-48
2022/03/30 05:50:51;;;;;;;7.38;2.90;;;;;;;;;;5046461;28;20086;-48
2022/03/30 05:53:17;;;;;;;7.10;2.97;;;;;;;;;;5048723;28;20057;-51
2022/03/30 05:55:46;;;;;;;10.77;3.28;;;;;;;;;;5039637;28;20044;-52
2022/03/30 05:58:14;;;;;;;9.20;3.13;;;;;;;;;;5045591;28;20021;-50
2022/03/30 06:00:40;;;;;;;10.57;3.17;;;;;;;;;;5039733;28;20041;-53
2022/03/30 06:03:06;;;;;;;10.05;3.05;;;;;;;;;;5038143;28;20056;-53
2022/03/30 06:05:32;;;;;;;4.97;2.92;;;;;;;;;;5036704;28;20038;-50
2022/03/30 06:07:59;;;;;;;10.63;3.92;;;;;;;;;;5040353;28;20046;-49
2022/03/30 06:10:28;;;;;;;8.95;3.83;;;;;;;;;;5037747;28;20371;-51
2022/03/30 06:12:57;;;;;;;8.63;3.95;;;;;;;;;;5043062;28;20389;-50
2022/03/30 06:15:24;;;;;;;10.68;3.85;;;;;;;;;;5037589;28;20025;-48
2022/03/30 06:17:51;;;;;;;9.90;3.28;;;;;;;;;;5044821;28;20033;-49
2022/03/30 06:20:17;;;;;;;7.40;3.17;;;;;;;;;;5038478;28;20642;-49
2022/03/30 06:22:43;;;;;;;13.73;3.25;;;;;;;;;;5043494;28;20040;-49
2022/03/30 06:25:09;;;;;;;10.45;3.40;;;;;;;;;;5035137;28;20037;-50
2022/03/30 06:27:36;;;;;;;9.32;2.75;;;;;;;;;;5042314;28;20033;-50
2022/03/30 06:30:04;;;;;;;6.50;2.53;;;;;;;;;;5039839;28;20082;-48
2022/03/30 06:32:29;;;;;;;10.93;3.30;;;;;;;;;;5044673;28;20041;-49
2022/03/30 06:34:55;;;;;;;5.97;2.90;;;;;;;;;;5041302;28;20021;-48
2022/03/30 06:37:21;;;;;;;9.38;3.20;;;;;;;;;;5036437;28;20017;-54
2022/03/30 06:39:49;;;;;;;7.68;2.75;;;;;;;;;;5039879;28;20075;-51
2022/03/30 06:42:16;;;;;;;9.25;2.63;;;;;;;;;;5037249;28;20397;-51
2022/03/30 06:44:43;;;;;;;8.43;2.25;;;;;;;;;;5038415;28;20034;-50
2022/03/30 06:47:09;;;;;;;5.50;2.10;;;;;;;;;;5047315;28;20036;-50
2022/03/30 06:49:37;;;;;;;6.50;2.10;;;;;;;;;;5035450;28;20025;-50
2022/03/30 06:52:03;;;;;;;5.50;2.50;;;;;;;;;;5042122;28;20036;-51
2022/03/30 06:54:29;;;;;;;7.32;1.90;;;;;;;;;;5037273;28;20052;-50
2022/03/30 06:56:55;;;;;;;8.75;2.80;;;;;;;;;;5036378;28;20032;-51
2022/03/30 06:59:21;;;;;;;9.30;1.90;;;;;;;;;;5046021;28;20423;-50
2022/03/30 07:01:47;;;;;;;4.03;2.08;;;;;;;;;;5040548;28;20036;-48
2022/03/30 07:04:13;;;;;;;5.45;2.30;;;;;;;;;;5047883;28;20496;-51
2022/03/30 07:10:14;;;;;;;11.02;2.10;;;;;;;;;;5041170;28;20028;-49
2022/03/30 07:12:10;;;;;;;7.72;2.28;;;;;;;;;;5043584;28;20067;-49
2022/03/30 07:14:36;;;;;;;8.88;2.25;;;;;;;;;;5042712;28;20524;-50
2022/03/30 07:17:03;;;;;;;7.00;2.10;;;;;;;;;;5042090;28;20040;-52
2022/03/30 07:19:29;;;;;;;8.00;2.25;;;;;;;;;;5039778;28;20097;-53
2022/03/30 07:21:55;;;;;;;11.40;3.88;;;;;;;;;;5035095;28;20083;-51
2022/03/30 07:24:21;;;;;;;11.20;2.97;;;;;;;;;;5041284;28;20441;-48
2022/03/30 07:26:47;;;;;;;9.02;2.22;;;;;;;;;;5049734;28;20037;-50
2022/03/30 07:29:13;;;;;;;14.18;3.08;;;;;;;;;;5043922;28;20037;-48
2022/03/30 07:31:39;;;;;;;10.98;2.08;;;;;;;;;;5042165;28;20162;-53
2022/03/30 07:34:05;;;;;;;10.68;3.22;;;;;;;;;;5044750;28;20086;-49
2022/03/30 07:36:31;;;;;;;10.00;2.90;;;;;;;;;;5034785;28;20037;-48
2022/03/30 07:38:57;;;;;;;7.88;2.28;;;;;;;;;;5049962;28;20548;-53
2022/03/30 07:41:23;;;;;;;8.32;2.25;;;;;;;;;;5042426;28;20469;-50
2022/03/30 07:43:49;;;;;;;8.52;2.22;;;;;;;;;;5047869;28;20119;-50
2022/03/30 07:46:15;;;;;;;4.03;2.45;;;;;;;;;;5033125;28;20396;-51
2022/03/30 07:48:41;;;;;;;7.43;2.35;;;;;;;;;;5038872;28;20363;-48
2022/03/30 07:51:07;;;;;;;11.98;2.30;;;;;;;;;;5035877;28;20033;-51
2022/03/30 07:53:33;;;;;;;13.68;2.17;;;;;;;;;;5032188;28;20068;-54
2022/03/30 07:55:59;;;;;;;9.82;2.20;;;;;;;;;;5034987;28;20150;-54
2022/03/30 07:58:26;;;;;;;9.32;2.53;;;;;;;;;;5039685;28;20037;-48
2022/03/30 08:00:52;;;;;;;8.77;2.22;;;;;;;;;;5037472;28;20031;-54
2022/03/30 08:03:18;;;;;;;7.95;2.33;;;;;;;;;;5041378;28;20110;-48
2022/03/30 08:05:44;;;;;;;4.88;1.77;;;;;;;;;;5043794;28;20477;-54
2022/03/30 08:08:10;;;;;;;7.32;1.45;;;;;;;;;;5034569;28;20029;-49
2022/03/30 08:10:37;;;;;;;6.00;2.25;;;;;;;;;;5040825;28;20028;-51
2022/03/30 08:13:03;;;;;;;7.82;2.17;;;;;;;;;;5039063;28;20057;-50
2022/03/30 08:15:30;;;;;;;7.43;2.05;;;;;;;;;;5047615;28;20020;-51
2022/03/30 08:17:56;;;;;;;7.40;2.35;;;;;;;;;;5037086;28;20029;-50
2022/03/30 08:23:08;;;;;;;5.35;1.80;;;;;;;;;;5036295;28;20097;-49
2022/03/30 08:25:34;;;;;;;13.20;2.28;;;;;;;;;;5037314;28;20101;-49
2022/03/30 08:28:00;;;;;;;12.75;2.15;;;;;;;;;;5046308;28;20040;-51
2022/03/30 08:30:26;;;;;;;5.85;1.70;;;;;;;;;;5037114;28;20468;-53
2022/03/30 08:32:52;;;;;;;6.65;1.73;;;;;;;;;;5045337;28;20183;-52
2022/03/30 08:35:18;;;;;;;8.82;2.20;;;;;;;;;;5050538;28;20095;-49
2022/03/30 08:37:44;;;;;;;8.27;1.98;;;;;;;;;;5048329;28;20029;-51
2022/03/30 08:40:10;;;;;;;9.00;1.65;;;;;;;;;;5038272;28;20037;-50
2022/03/30 08:42:38;;;;;;;8.35;1.98;;;;;;;;;;5034381;28;20112;-52
2022/03/30 08:45:05;;;;;;;5.40;1.65;;;;;;;;;;5034942;28;20486;-48
2022/03/30 08:47:32;;;;;;;10.02;1.60;;;;;;;;;;5045924;28;20053;-52
2022/03/30 08:49:58;;;;;;;5.07;1.38;;;;;;;;;;5044840;28;20776;-49
2022/03/30 08:52:24;;;;;;;5.22;1.70;;;;;;;;;;5038127;28;20046;-49
2022/03/30 08:54:51;;;;;;;5.60;1.02;;;;;;;;;;5039612;28;20612;-51
2022/03/30 08:57:17;;;;;;;7.35;1.27;;;;;;;;;;5041924;28;20367;-49
2022/03/30 08:59:59;;;;;;;7.97;1.52;;;;;;;;;;5042481;28;20035;-52
2022/03/30 09:02:38;;;;;;;8.00;2.20;;;;;;;;;;5050184;28;20129;-49
2022/03/30 09:05:15;;;;;;;7.90;1.80;;;;;;;;;;5045963;28;20039;-49
2022/03/30 09:07:42;;;;;;;7.07;2.05;;;;;;;;;;5042552;28;20040;-50
2022/03/30 09:10:14;;;;;;;8.45;1.63;;;;;;;;;;5038961;28;20038;-50
2022/03/30 09:12:41;;;;;;;7.13;1.80;;;;;;;;;;5039879;28;20123;-50
2022/03/30 09:15:08;;;;;;;12.52;2.15;;;;;;;;;;5046527;28;20036;-50
2022/03/30 09:17:38;;;;;;;9.15;2.15;;;;;;;;;;5048282;28;20350;-51
2022/03/30 09:20:05;;;;;;;6.78;2.03;;;;;;;;;;5040165;28;20026;-53
2022/03/30 09:22:33;;;;;;;6.13;1.73;;;;;;;;;;5040979;28;20029;-50
2022/03/30 09:25:00;;;;;;;6.60;1.90;;;;;;;;;;5035339;28;20393;-51
2022/03/30 09:27:27;;;;;;;3.40;1.58;;;;;;;;;;5051913;28;20032;-50
2022/03/30 09:29:53;;;;;;;6.07;1.90;;;;;;;;;;5048631;28;20087;-52
2022/03/30 09:32:20;;;;;;;5.72;2.15;;;;;;;;;;5038281;28;20120;-50
2022/03/30 09:34:53;;;;;;;3.95;1.73;;;;;;;;;;5040127;28;20025;-50
2022/03/30 09:37:19;;;;;;;;;;;;;;;;;;5036509;28;20032;-55
2022/03/30 09:39:45;;;;;;;7.13;1.83;;;;;;;;;;5041990;28;19932;-50
2022/03/30 09:42:13;;;;;;;8.57;1.83;;;;;;;;;;5043621;28;20033;-50
2022/03/30 09:44:57;;;;;;;8.38;1.77;;;;;;;;;;5041194;28;20436;-51
2022/03/30 09:47:24;;;;;;;7.10;2.28;;;;;;;;;;5043641;28;20111;-48
2022/03/30 09:49:52;;;;;;;13.85;2.13;;;;;;;;;;5044388;28;20402;-49
2022/03/30 09:52:19;;;;;;;4.60;1.45;;;;;;;;;;5043755;28;20036;-48
2022/03/30 09:54:49;;;;;;;5.25;1.63;;;;;;;;;;5034534;28;20060;-50
2022/03/30 09:57:17;;;;;;;6.97;1.73;;;;;;;;;;5049655;28;20354;-48
2022/03/30 10:00:15;;;;;;;9.70;1.95;;;;;;;;;;5045646;28;20048;-50
2022/03/30 10:02:44;;;;;;;7.25;1.80;;;;;;;;;;5026886;28;20041;-51
2022/03/30 10:05:11;;;;;;;5.20;1.40;;;;;;;;;;5041432;28;20025;-52
2022/03/30 10:07:37;;;;;;;5.20;1.73;;;;;;;;;;5042601;28;20032;-49
2022/03/30 10:10:04;;;;;;;5.13;1.40;;;;;;;;;;5046254;28;20034;-50
2022/03/30 10:12:31;;;;;;;5.53;1.15;;;;;;;;;;5053811;28;20025;-49
2022/03/30 10:14:57;;;;;;;6.70;1.20;;;;;;;;;;5042951;28;20021;-50
2022/03/30 10:17:24;;;;;;;7.82;1.25;;;;;;;;;;5044449;28;20080;-52
2022/03/30 10:19:52;;;;;;;5.50;1.60;;;;;;;;;;5050797;28;20120;-53
2022/03/30 10:22:37;;;;;;;7.30;1.63;;;;;;;;;;5054058;28;20025;-49
2022/03/30 10:25:19;;;;;;;4.78;1.20;;;;;;;;;;5037470;28;20033;-52
2022/03/30 10:27:57;;;;;;;4.07;1.20;;;;;;;;;;5054402;28;20033;-53
2022/03/30 10:30:30;;;;;;;4.20;1.10;;;;;;;;;;5045878;28;20114;-52
2022/03/30 10:32:58;;;;;;;3.08;1.40;;;;;;;;;;5050794;28;20052;-53
2022/03/30 10:35:37;;;;;;;5.57;1.50;;;;;;;;;;5041747;28;20025;-49
2022/03/30 10:38:03;;;;;;;2.70;1.08;;;;;;;;;;5039322;28;20423;-50
2022/03/30 10:40:29;;;;;;;2.33;1.00;;;;;;;;;;5042020;28;20108;-55
2022/03/30 10:42:57;;;;;;;2.97;1.27;;;;;;;;;;5047946;28;20041;-49
2022/03/30 10:45:25;;;;;;;4.40;1.30;;;;;;;;;;5036255;28;20036;-49
2022/03/30 10:48:11;;;;;;;6.13;1.25;;;;;;;;;;5042338;28;20024;-53
2022/03/30 10:50:41;;;;;;;5.82;1.30;;;;;;;;;;5052139;28;20477;-52
2022/03/30 10:53:26;;;;;;;6.00;1.92;;;;;;;;;;5044367;28;20026;-49
2022/03/30 10:55:52;;;;;;;3.30;1.05;;;;;;;;;;5043411;28;20178;-49
2022/03/30 10:58:21;;;;;;;2.97;1.23;;;;;;;;;;5044681;28;20031;-48
2022/03/30 11:00:47;;;;;;;7.65;1.65;;;;;;;;;;5043154;28;20074;-49
2022/03/30 11:03:14;;;;;;;3.88;1.10;;;;;;;;;;5053505;28;20099;-48
2022/03/30 11:05:44;;;;;;;5.22;1.45;;;;;;;;;;5047034;28;20037;-49
2022/03/30 11:08:29;;;;;;;6.22;1.13;;;;;;;;;;5043421;28;20036;-50
2022/03/30 11:10:55;;;;;;;5.82;1.50;;;;;;;;;;5035751;28;20033;-49
2022/03/30 11:13:24;;;;;;;3.88;1.25;;;;;;;;;;5036551;28;20108;-49
2022/03/30 11:15:59;;;;;;;5.75;1.45;;;;;;;;;;5041498;28;20087;-50
2022/03/30 11:18:26;;;;;;;10.10;1.40;;;;;;;;;;5036345;28;20030;-51
2022/03/30 11:21:20;;;;;;;3.88;0.98;;;;;;;;;;5046125;28;20035;-52
2022/03/30 11:23:57;;;;;;;7.15;1.30;;;;;;;;;;5043933;28;20037;-50
2022/03/30 11:26:24;;;;;;;7.45;1.67;;;;;;;;;;5044090;28;20116;-49
2022/03/30 11:28:50;;;;;;;4.93;1.50;;;;;;;;;;5031438;28;20033;-49
2022/03/30 11:31:20;;;;;;;5.10;1.30;;;;;;;;;;5036169;28;20064;-55
2022/03/30 11:33:46;;;;;;;5.03;1.50;;;;;;;;;;5046504;28;20021;-53
2022/03/30 11:36:14;;;;;;;5.90;2.05;;;;;;;;;;5036761;28;20048;-53
2022/03/30 11:38:41;;;;;;;6.03;1.90;;;;;;;;;;5042930;28;20025;-50
2022/03/30 11:41:08;;;;;;;7.38;1.58;;;;;;;;;;5037706;28;20113;-50
2022/03/30 11:45:12;;;;;;;4.57;1.70;;;;;;;;;;5037078;28;20421;-53
2022/03/30 11:46:32;;;;;;;4.15;1.40;;;;;;;;;;5038536;28;20043;-51
2022/03/30 11:49:01;;;;;;;2.72;1.60;;;;;;;;;;5038329;28;20049;-49
2022/03/30 11:51:28;;;;;;;3.25;1.17;;;;;;;;;;5041114;28;20033;-49
2022/03/30 11:54:13;;;;;;;5.63;2.00;;;;;;;;;;5033354;28;20032;-55
2022/03/30 11:56:40;;;;;;;3.42;1.20;;;;;;;;;;5039142;28;20073;-50
2022/03/30 11:59:06;;;;;;;3.15;1.23;;;;;;;;;;5034345;28;20365;-54
2022/03/30 12:01:35;;;;;;;5.75;1.50;;;;;;;;;;5044032;28;20082;-52
2022/03/30 12:04:03;;;;;;;8.52;1.98;;;;;;;;;;5040107;28;20049;-52
2022/03/30 12:06:29;;;;;;;9.20;1.60;;;;;;;;;;5049509;28;20144;-52
2022/03/30 12:08:55;;;;;;;4.38;1.27;;;;;;;;;;5050223;28;20043;-50
2022/03/30 12:11:22;;;;;;;3.40;1.27;;;;;;;;;;5042430;28;20036;-53
2022/03/30 12:13:51;;;;;;;4.63;1.17;;;;;;;;;;5036574;28;20080;-49
2022/03/30 12:16:17;;;;;;;4.22;1.38;;;;;;;;;;5035412;28;20056;-48
2022/03/30 12:18:47;;;;;;;2.45;0.93;;;;;;;;;;5043183;28;20037;-50
2022/03/30 12:21:23;;;;;;;3.03;1.23;;;;;;;;;;5043644;28;20036;-49
2022/03/30 12:23:50;;;;;;;3.10;1.35;;;;;;;;;;5034171;28;20369;-51
2022/03/30 12:26:16;;;;;;;2.88;1.23;;;;;;;;;;5049169;28;20428;-51
2022/03/30 12:28:42;;;;;;;4.13;1.40;;;;;;;;;;5044092;28;20116;-50
2022/03/30 12:31:10;;;;;;;3.92;1.38;;;;;;;;;;5034020;28;20029;-49
2022/03/30 12:33:50;;;;;;;4.18;1.35;;;;;;;;;;5035758;28;20063;-51
2022/03/30 12:36:21;;;;;;;9.88;1.80;;;;;;;;;;5044976;28;20026;-49
2022/03/30 12:38:51;;;;;;;6.30;1.27;;;;;;;;;;5044694;28;20025;-50
2022/03/30 12:41:24;;;;;;;7.13;1.27;;;;;;;;;;5035348;28;20469;-50
2022/03/30 12:43:59;;;;;;;9.20;1.25;;;;;;;;;;5043842;28;20029;-49
2022/03/30 12:46:28;;;;;;;5.32;1.55;;;;;;;;;;5037345;28;20041;-50
2022/03/30 12:49:02;;;;;;;4.05;1.25;;;;;;;;;;5036348;28;20029;-48
2022/03/30 12:51:33;;;;;;;3.83;1.58;;;;;;;;;;5032172;28;20343;-49
2022/03/30 12:53:59;;;;;;;8.25;2.10;;;;;;;;;;5040385;28;20029;-55
2022/03/30 12:56:26;;;;;;;4.57;1.73;;;;;;;;;;5043860;28;20044;-49
2022/03/30 12:58:57;;;;;;;5.43;1.42;;;;;;;;;;5045501;28;20449;-50
2022/03/30 13:01:27;;;;;;;8.57;1.55;;;;;;;;;;5036540;28;20100;-50
2022/03/30 13:03:53;;;;;;;2.50;1.40;;;;;;;;;;5050797;28;20025;-53
2022/03/30 13:06:20;;;;;;;4.80;1.77;;;;;;;;;;5038931;28;20445;-47
2022/03/30 13:09:02;;;;;;;5.82;1.65;;;;;;;;;;5036811;28;20032;-50
2022/03/30 13:11:28;;;;;;;5.22;1.33;;;;;;;;;;5039570;28;20140;-48
2022/03/30 13:13:56;;;;;;;4.13;1.38;;;;;;;;;;5035664;28;20029;-49
2022/03/30 13:16:28;;;;;;;3.78;1.10;;;;;;;;;;5038337;28;20562;-50
2022/03/30 13:19:01;;;;;;;3.53;1.20;;;;;;;;;;5044500;28;20484;-48
2022/03/30 13:21:35;;;;;;;8.32;1.55;;;;;;;;;;5040173;28;20473;-54
2022/03/30 13:24:09;;;;;;;5.03;1.70;;;;;;;;;;5037751;28;20033;-50
2022/03/30 13:26:38;;;;;;;4.45;1.80;;;;;;;;;;5039870;28;20044;-51
2022/03/30 13:29:05;;;;;;;5.55;1.60;;;;;;;;;;5039031;28;20037;-50
2022/03/30 13:31:31;;;;;;;3.35;1.30;;;;;;;;;;5033473;28;20140;-53
2022/03/30 13:33:58;;;;;;;3.65;1.50;;;;;;;;;;5045657;28;20029;-53
2022/03/30 13:36:25;;;;;;;5.63;1.40;;;;;;;;;;5047780;28;20025;-52
2022/03/30 13:38:52;;;;;;;7.32;1.52;;;;;;;;;;5041265;28;20028;-52
2022/03/30 13:41:18;;;;;;;5.30;2.13;;;;;;;;;;5045950;28;20082;-50
2022/03/30 13:43:44;;;;;;;5.10;1.50;;;;;;;;;;5047939;28;20037;-49
2022/03/30 13:46:10;;;;;;;8.65;1.73;;;;;;;;;;5047847;28;20552;-53
2022/03/30 13:48:37;;;;;;;5.70;1.77;;;;;;;;;;5047702;28;20037;-50
2022/03/30 13:51:03;;;;;;;4.70;1.80;;;;;;;;;;5047863;28;20139;-50
2022/03/30 13:53:30;;;;;;;6.47;1.77;;;;;;;;;;5039439;28;20014;-51
2022/03/30 13:55:57;;;;;;;5.40;1.60;;;;;;;;;;5045023;28;20052;-53
2022/03/30 13:58:23;;;;;;;6.20;1.98;;;;;;;;;;5039363;28;20032;-52
2022/03/30 14:00:49;;;;;;;5.97;2.20;;;;;;;;;;5038155;28;20025;-49
2022/03/30 14:03:15;;;;;;;4.25;2.00;;;;;;;;;;5045668;28;20033;-53
2022/03/30 14:05:41;;;;;;;3.63;2.03;;;;;;;;;;5045281;28;20082;-51
2022/03/30 14:08:07;;;;;;;7.05;2.30;;;;;;;;;;5045505;28;20032;-53
2022/03/30 14:10:33;;;;;;;7.72;2.58;;;;;;;;;;5037643;28;20156;-52
2022/03/30 14:12:59;;;;;;;7.47;2.17;;;;;;;;;;5045124;28;20083;-49
2022/03/30 14:15:25;;;;;;;4.25;2.38;;;;;;;;;;5041344;28;20025;-49
2022/03/30 14:17:51;;;;;;;7.07;2.20;;;;;;;;;;5038442;28;20530;-51
2022/03/30 14:20:19;;;;;;;3.45;2.55;;;;;;;;;;5047809;28;20393;-51
2022/03/30 14:22:47;;;;;;;8.10;2.28;;;;;;;;;;5045246;28;20029;-50
2022/03/30 14:25:18;;;;;;;5.05;2.15;;;;;;;;;;5045087;28;20025;-54
2022/03/30 14:27:44;;;;;;;5.93;2.10;;;;;;;;;;5037145;28;20041;-52
2022/03/30 14:30:10;;;;;;;3.33;1.92;;;;;;;;;;5033786;28;20037;-49
2022/03/30 14:32:37;;;;;;;5.00;1.95;;;;;;;;;;5035876;28;20087;-49
2022/03/30 14:35:04;;;;;;;5.53;1.90;;;;;;;;;;5051252;28;20033;-48
2022/03/30 14:37:31;;;;;;;4.03;1.80;;;;;;;;;;5038341;28;20025;-50
2022/03/30 14:39:57;;;;;;;5.35;2.15;;;;;;;;;;5041137;28;20112;-54
2022/03/30 14:42:23;;;;;;;4.85;1.80;;;;;;;;;;5035626;28;20061;-52
2022/03/30 14:44:49;;;;;;;7.55;2.40;;;;;;;;;;5040852;28;20083;-52
2022/03/30 14:47:15;;;;;;;2.97;1.60;;;;;;;;;;5042677;28;20041;-53
2022/03/30 14:49:41;;;;;;;4.40;1.98;;;;;;;;;;5038902;28;20033;-50
2022/03/30 14:52:09;;;;;;;7.25;1.98;;;;;;;;;;5043484;28;20072;-49
2022/03/30 14:54:35;;;;;;;3.53;1.48;;;;;;;;;;5040619;28;20149;-49
2022/03/30 14:57:01;;;;;;;5.25;1.83;;;;;;;;;;5043809;28;20059;-48